createdAt,value
2022-10-09T00:32:39.372Z,5.18
2022-10-09T01:14:30.741Z,5.28
2022-10-09T01:39:02.391Z,3.67
2022-10-09T03:17:38.247Z,2.22
2022-10-09T03:22:17.739Z,1.73
2022-10-09T03:27:22.703Z,2.30
2022-10-09T03:45:25.770Z,2.25
2022-10-09T04:02:10.221Z,1.90
2022-10-09T04:07:13.108Z,2.00
2022-10-09T04:12:16.405Z,1.77
2022-10-09T04:17:18.309Z,1.90
2022-10-09T04:22:20.422Z,1.67
2022-10-09T04:33:29.713Z,1.92
2022-10-09T05:12:05.994Z,1.67
2022-10-09T05:17:14.928Z,2.22
2022-10-09T05:22:57.849Z,1.88
2022-10-09T05:28:00.393Z,1.70
2022-10-09T05:33:02.802Z,2.53
2022-10-09T05:38:26.765Z,1.73
2022-10-09T05:43:40.402Z,2.10
2022-10-09T05:48:45.048Z,2.00
2022-10-09T05:53:47.904Z,2.35
2022-10-09T05:58:58.591Z,1.98
2022-10-09T06:04:12.528Z,1.50
2022-10-09T06:09:41.019Z,1.65
2022-10-09T06:14:42.834Z,2.03
2022-10-09T06:19:44.538Z,2.10
2022-10-09T06:24:46.251Z,1.80
2022-10-09T06:29:50.517Z,2.00
2022-10-09T06:34:54.801Z,1.98
2022-10-09T06:39:59.128Z,1.90
2022-10-09T06:45:10.391Z,2.25
2022-10-09T06:50:26.266Z,2.63
2022-10-09T06:55:44.416Z,1.90
2022-10-09T07:01:05.801Z,1.65
2022-10-09T07:06:22.019Z,1.63
2022-10-09T07:12:30.794Z,1.60
2022-10-09T07:17:58.143Z,1.88
2022-10-09T07:23:43.080Z,1.67
2022-10-09T07:28:48.603Z,1.80
2022-10-09T07:39:45.826Z,1.98
2022-10-09T07:50:35.839Z,1.83
2022-10-09T08:01:30.484Z,2.05
2022-10-09T08:12:30.897Z,1.70
2022-10-09T08:30:34.472Z,1.80
2022-10-09T08:41:54.722Z,2.03
2022-10-09T08:47:05.869Z,2.42
2022-10-09T08:52:30.065Z,2.30
2022-10-09T08:57:37.683Z,2.35
2022-10-09T09:03:01.818Z,2.63
2022-10-09T09:08:23.583Z,2.55
2022-10-09T09:14:01.418Z,2.42
2022-10-09T09:33:02.257Z,1.70
2022-10-09T09:55:45.088Z,2.08
2022-10-09T10:00:58.706Z,1.77
2022-10-09T10:06:02.369Z,1.80
2022-10-09T10:52:56.641Z,1.70
2022-10-09T10:58:44.081Z,1.45
2022-10-09T11:10:30.856Z,1.85
2022-10-09T11:21:55.451Z,1.63
2022-10-09T11:33:05.508Z,1.33
2022-10-09T12:19:05.392Z,1.27
2022-10-09T12:42:08.863Z,1.10
2022-10-09T13:23:31.366Z,1.20
2022-10-09T13:28:52.750Z,1.05
2022-10-09T13:52:35.356Z,1.55
2022-10-09T14:03:07.814Z,0.57
2022-10-09T14:20:39.053Z,0.70
2022-10-09T14:31:38.605Z,0.40
2022-10-09T14:43:07.119Z,0.60
2022-10-09T14:48:17.152Z,0.50
2022-10-09T14:59:18.342Z,0.77
2022-10-09T15:04:54.342Z,0.50
2022-10-09T15:15:47.934Z,0.70
2022-10-09T15:20:49.727Z,0.47
2022-10-09T15:32:09.033Z,0.40
2022-10-09T15:37:18.489Z,1.27
2022-10-09T15:42:20.623Z,1.77
2022-10-09T15:47:39.126Z,3.15
2022-10-09T15:52:49.833Z,9.88
2022-10-09T15:58:25.401Z,1.67
2022-10-09T16:10:06.618Z,0.98
2022-10-09T16:15:40.034Z,3.27
2022-10-09T16:26:39.569Z,3.58
2022-10-09T16:31:48.699Z,1.48
2022-10-09T16:37:24.806Z,1.63
2022-10-09T16:42:39.096Z,1.38
2022-10-09T16:47:44.530Z,2.60
2022-10-09T16:53:05.280Z,2.17
2022-10-09T16:58:40.627Z,1.48
2022-10-09T17:03:46.275Z,3.00
2022-10-09T17:08:57.692Z,3.10
2022-10-09T17:14:54.893Z,2.45
2022-10-09T17:20:39.216Z,1.60
2022-10-09T17:25:57.299Z,1.58
2022-10-09T17:31:10.786Z,1.90
2022-10-09T17:36:18.683Z,3.28
2022-10-09T17:41:30.511Z,6.68
2022-10-09T17:46:39.329Z,9.52
2022-10-09T17:51:50.341Z,11.15
2022-10-09T17:57:01.642Z,7.28
2022-10-09T18:02:08.914Z,7.85
2022-10-09T18:07:15.067Z,8.77
2022-10-09T18:12:21.394Z,9.38
2022-10-09T18:17:25.317Z,10.85
2022-10-09T18:22:29.024Z,8.52
2022-10-09T18:27:37.529Z,7.97
2022-10-09T18:32:44.276Z,7.47
2022-10-09T18:37:51.021Z,8.50
2022-10-09T18:42:57.628Z,15.10
2022-10-09T18:48:04.642Z,14.45
2022-10-09T18:53:12.469Z,14.57
2022-10-09T18:58:15.559Z,13.52
2022-10-09T19:03:20.989Z,9.50
2022-10-09T19:08:25.884Z,8.02
2022-10-09T19:13:30.098Z,5.82
2022-10-09T19:18:35.150Z,4.65
2022-10-09T19:23:39.607Z,3.38
2022-10-09T19:28:47.511Z,2.55
2022-10-09T19:34:27.811Z,2.55
2022-10-09T19:39:48.716Z,1.58
2022-10-09T19:45:02.380Z,1.40
2022-10-09T19:50:10.655Z,1.42
2022-10-09T19:55:16.634Z,1.13
2022-10-09T20:00:18.794Z,1.15
2022-10-09T20:05:21.519Z,1.27
2022-10-09T20:10:24.649Z,1.60
2022-10-09T20:15:28.854Z,1.60
2022-10-09T20:20:30.858Z,0.98
2022-10-09T20:25:32.897Z,0.90
2022-10-09T20:30:35.236Z,0.65
2022-10-09T20:35:43.684Z,1.27
2022-10-09T20:40:48.638Z,0.90
2022-10-09T20:45:50.565Z,1.38
2022-10-09T20:50:53.677Z,1.15
2022-10-09T20:56:03.257Z,1.08
2022-10-09T21:01:07.783Z,1.83
2022-10-09T21:06:13.155Z,2.30
2022-10-09T21:11:17.288Z,2.33
2022-10-09T21:16:22.817Z,1.70
2022-10-09T21:21:25.855Z,2.20
2022-10-09T21:26:35.873Z,2.17
2022-10-09T21:31:37.909Z,1.58
2022-10-09T21:37:02.138Z,1.90
2022-10-09T21:42:06.479Z,2.35
2022-10-09T21:47:16.547Z,2.80
2022-10-09T21:52:18.332Z,2.40
2022-10-09T21:57:20.311Z,2.97
2022-10-09T22:02:22.691Z,2.50
2022-10-09T22:07:30.522Z,2.38
2022-10-09T22:12:33.596Z,2.53
2022-10-09T22:17:37.711Z,1.95
2022-10-09T22:22:40.054Z,1.30
2022-10-09T22:27:42.137Z,1.65
2022-10-09T22:32:43.987Z,1.40
2022-10-09T22:37:45.975Z,1.25
2022-10-09T22:42:48.251Z,1.33
2022-10-09T22:47:50.581Z,1.20
2022-10-09T22:52:52.998Z,1.67
2022-10-09T22:57:55.184Z,1.85
2022-10-09T23:02:57.000Z,1.95
2022-10-09T23:07:58.743Z,1.77
2022-10-09T23:13:00.500Z,2.08
2022-10-09T23:18:04.428Z,1.20
2022-10-09T23:23:06.395Z,1.23
2022-10-09T23:28:08.428Z,1.58
2022-10-09T23:33:10.445Z,2.25
2022-10-09T23:38:12.164Z,1.55
2022-10-09T23:43:14.244Z,1.13
2022-10-09T23:48:16.014Z,2.70
2022-10-09T23:53:18.192Z,2.70
2022-10-09T23:58:21.217Z,3.33
